Time;durP1;ratioP1;P1;durP2;ratioP2;P2;SDS_P1;SDS_P2;PMS_P1;PMS_P2;Temp;Humidity;BMP_temperature;BMP_pressure;BME280_temperature;BME280_humidity;BME280_pressure;Samples;Min_cycle;Max_cycle;Signal;HPM_P1;HPM_P2
2023/05/03 00:01:02;;;;;;;1.40;0.40;;;20.30;99.90;;;;;;5115967;28;20661;-78
2023/05/03 00:03:33;;;;;;;0.80;0.38;;;20.40;99.90;;;;;;5075467;28;20605;-76
2023/05/03 00:06:14;;;;;;;1.00;0.40;;;20.40;99.90;;;;;;5075491;28;20199;-78
2023/05/03 00:08:47;;;;;;;1.23;0.30;;;20.50;99.90;;;;;;5093613;28;20196;-76
2023/05/03 00:11:18;;;;;;;1.50;0.40;;;20.60;99.90;;;;;;5107938;28;20218;-77
2023/05/03 00:13:49;;;;;;;0.85;0.40;;;20.70;99.90;;;;;;5098738;28;20742;-76
2023/05/03 00:16:21;;;;;;;3.03;0.40;;;20.80;99.90;;;;;;5095594;28;20203;-75
2023/05/03 00:18:53;;;;;;;2.25;0.50;;;20.90;99.90;;;;;;5105518;28;20188;-77
2023/05/03 00:21:24;;;;;;;3.10;0.52;;;20.90;99.90;;;;;;5095462;28;20205;-75
2023/05/03 00:23:57;;;;;;;5.45;1.13;;;21.00;99.90;;;;;;5094916;28;20235;-77
2023/05/03 00:26:29;;;;;;;2.97;0.43;;;21.10;99.90;;;;;;5097742;28;20191;-75
2023/05/03 00:29:00;;;;;;;3.67;0.80;;;21.20;99.90;;;;;;5080884;28;20192;-77
2023/05/03 00:31:31;;;;;;;3.22;0.50;;;21.20;99.90;;;;;;5092507;28;20202;-78
2023/05/03 00:34:02;;;;;;;0.50;0.50;;;21.30;99.90;;;;;;5090095;28;20208;-75
2023/05/03 00:36:33;;;;;;;1.88;0.43;;;21.40;99.90;;;;;;5075656;28;20196;-75
2023/05/03 00:39:06;;;;;;;3.47;0.80;;;21.40;99.90;;;;;;5085136;28;20574;-75
2023/05/03 00:41:40;;;;;;;2.25;0.50;;;21.50;99.90;;;;;;5083940;28;20542;-74
2023/05/03 00:44:11;;;;;;;1.42;0.50;;;21.50;99.90;;;;;;5088176;28;20217;-81
2023/05/03 00:46:43;;;;;;;1.95;0.50;;;21.60;99.90;;;;;;5093667;28;20671;-78
2023/05/03 00:49:14;;;;;;;0.90;0.35;;;21.70;99.90;;;;;;5086203;28;20200;-81
2023/05/03 00:51:45;;;;;;;2.03;0.43;;;21.80;99.90;;;;;;5094852;28;20666;-75
2023/05/03 00:54:18;;;;;;;0.77;0.40;;;21.90;99.90;;;;;;5095277;28;20196;-75
2023/05/03 00:56:49;;;;;;;0.75;0.40;;;22.00;99.90;;;;;;5106240;28;20245;-76
2023/05/03 00:59:21;;;;;;;1.15;0.50;;;22.10;99.90;;;;;;5108767;28;20191;-77
2023/05/03 01:01:54;;;;;;;1.90;0.50;;;22.20;99.90;;;;;;5115092;28;20195;-76
2023/05/03 01:04:25;;;;;;;0.75;0.57;;;22.30;99.90;;;;;;5086409;28;20247;-75
2023/05/03 01:07:06;;;;;;;1.27;0.70;;;22.40;99.90;;;;;;5091028;28;20227;-77
2023/05/03 01:09:51;;;;;;;0.80;0.40;;;22.50;99.90;;;;;;5084373;28;20663;-76
2023/05/03 01:12:32;;;;;;;1.77;0.60;;;22.60;99.90;;;;;;5075573;28;20280;-75
2023/05/03 01:15:10;;;;;;;1.20;0.40;;;22.70;99.90;;;;;;5074162;28;20200;-76
2023/05/03 01:17:47;;;;;;;2.15;0.60;;;22.80;99.90;;;;;;5074210;28;20197;-77
2023/05/03 01:20:23;;;;;;;2.60;0.82;;;22.80;99.90;;;;;;5074610;28;20243;-76
2023/05/03 01:23:10;;;;;;;2.05;0.60;;;22.80;99.90;;;;;;5074231;28;20282;-75
2023/05/03 01:25:43;;;;;;;2.70;1.08;;;22.90;99.90;;;;;;5073932;28;20626;-75
2023/05/03 01:28:14;;;;;;;3.40;0.50;;;22.90;99.90;;;;;;5073926;28;20264;-77
2023/05/03 01:30:46;;;;;;;4.70;0.50;;;23.00;99.90;;;;;;5073906;28;20196;-75
2023/05/03 01:33:25;;;;;;;2.15;0.60;;;23.10;99.90;;;;;;5087578;28;20207;-78
2023/05/03 01:36:02;;;;;;;2.78;0.50;;;23.10;99.90;;;;;;5094094;28;20204;-74
2023/05/03 01:38:37;;;;;;;1.88;0.70;;;23.20;99.90;;;;;;5094188;28;20195;-74
2023/05/03 01:41:13;;;;;;;1.38;0.50;;;23.20;99.90;;;;;;5093948;28;20559;-75
2023/05/03 01:43:45;;;;;;;1.58;0.43;;;23.30;99.90;;;;;;5093919;28;20220;-73
2023/05/03 01:46:17;;;;;;;3.30;0.60;;;23.30;99.90;;;;;;5093896;28;20203;-80
2023/05/03 01:48:51;;;;;;;5.18;1.30;;;23.30;99.90;;;;;;5093666;28;20191;-74
2023/05/03 01:51:22;;;;;;;2.92;0.73;;;23.30;99.90;;;;;;5093896;28;20187;-80
2023/05/03 01:53:53;;;;;;;1.85;0.50;;;23.30;99.90;;;;;;5093417;28;20197;-74
2023/05/03 01:56:26;;;;;;;6.30;0.60;;;23.30;99.90;;;;;;5092519;28;20196;-73
2023/05/03 01:58:58;;;;;;;5.40;0.80;;;23.40;99.90;;;;;;5094009;28;20199;-75
2023/05/03 02:01:29;;;;;;;3.97;0.52;;;23.40;99.90;;;;;;5093479;28;20223;-76
2023/05/03 02:04:02;;;;;;;2.85;0.60;;;23.40;99.90;;;;;;5093464;28;20240;-73
2023/05/03 02:06:34;;;;;;;4.95;0.50;;;23.50;99.90;;;;;;5093938;28;20200;-75
2023/05/03 02:09:05;;;;;;;2.72;0.55;;;23.40;99.90;;;;;;5093216;28;20214;-82
2023/05/03 02:11:39;;;;;;;3.72;0.60;;;23.40;99.90;;;;;;5093517;28;20216;-77
2023/05/03 02:14:10;;;;;;;3.25;1.38;;;23.50;99.90;;;;;;5093777;28;20192;-75
2023/05/03 02:16:41;;;;;;;2.10;0.60;;;23.50;99.90;;;;;;5093728;28;20192;-74
2023/05/03 02:19:12;;;;;;;3.95;1.60;;;23.60;99.90;;;;;;5093557;28;20199;-75
2023/05/03 02:21:44;;;;;;;3.33;0.80;;;23.70;99.90;;;;;;5093639;28;20192;-74
2023/05/03 02:24:15;;;;;;;2.95;0.55;;;23.70;99.90;;;;;;5093886;28;20226;-77
2023/05/03 02:26:48;;;;;;;5.07;0.47;;;23.70;99.90;;;;;;5093335;28;20188;-74
2023/05/03 02:29:19;;;;;;;1.10;0.35;;;23.70;99.90;;;;;;5093424;28;20184;-74
2023/05/03 02:31:51;;;;;;;2.65;0.47;;;23.60;99.90;;;;;;5093189;28;20195;-75
2023/05/03 02:34:22;;;;;;;3.65;0.50;;;23.70;99.90;;;;;;5093375;28;20184;-75
2023/05/03 02:36:53;;;;;;;3.45;0.60;;;23.70;99.90;;;;;;5093442;28;20275;-80
2023/05/03 02:39:24;;;;;;;4.07;0.65;;;23.70;99.90;;;;;;5093654;28;20203;-76
2023/05/03 02:41:57;;;;;;;2.38;0.80;;;23.70;99.90;;;;;;5093532;28;20199;-73
2023/05/03 02:44:30;;;;;;;1.83;0.75;;;23.70;99.90;;;;;;5093219;28;20220;-76
2023/05/03 02:47:03;;;;;;;4.43;0.50;;;23.70;99.90;;;;;;5093055;28;20600;-75
2023/05/03 02:49:34;;;;;;;4.07;0.60;;;23.80;99.90;;;;;;5093534;28;20200;-74
2023/05/03 02:52:05;;;;;;;3.22;0.75;;;23.80;99.90;;;;;;5093183;28;20198;-76
2023/05/03 02:54:36;;;;;;;2.03;0.45;;;23.80;99.90;;;;;;5093583;28;20640;-76
2023/05/03 02:57:10;;;;;;;5.45;0.60;;;23.70;99.90;;;;;;5093113;28;20189;-74
2023/05/03 02:59:41;;;;;;;1.85;0.57;;;23.70;99.90;;;;;;5092869;28;20228;-76
2023/05/03 03:02:12;;;;;;;3.38;0.55;;;23.80;99.90;;;;;;5093341;28;20185;-74
2023/05/03 03:04:43;;;;;;;6.32;0.90;;;23.80;99.90;;;;;;5095852;28;20284;-76
2023/05/03 03:07:14;;;;;;;2.53;0.60;;;23.80;99.90;;;;;;5096910;28;20188;-74
2023/05/03 03:09:46;;;;;;;1.45;0.32;;;23.80;99.90;;;;;;5096782;28;20196;-74
2023/05/03 03:12:19;;;;;;;2.63;0.50;;;23.80;99.90;;;;;;5096889;28;20188;-73
2023/05/03 03:14:53;;;;;;;1.75;0.40;;;23.80;99.90;;;;;;5096533;28;20196;-74
2023/05/03 03:17:24;;;;;;;6.28;0.95;;;23.80;99.90;;;;;;5096740;28;20188;-73
2023/05/03 03:19:57;;;;;;;3.55;0.50;;;23.80;99.90;;;;;;5093075;28;20207;-73
2023/05/03 03:22:28;;;;;;;0.65;0.30;;;23.90;99.90;;;;;;5096695;28;20189;-80
2023/05/03 03:24:59;;;;;;;1.42;0.38;;;23.90;99.90;;;;;;5097271;28;20226;-75
2023/05/03 03:27:32;;;;;;;4.05;0.60;;;23.90;99.90;;;;;;5097413;28;20185;-75
2023/05/03 03:30:03;;;;;;;3.40;0.50;;;24.00;99.90;;;;;;5096413;28;20200;-77
2023/05/03 03:32:34;;;;;;;2.72;0.65;;;23.90;99.90;;;;;;5096567;28;20188;-74
2023/05/03 03:35:05;;;;;;;1.75;0.47;;;23.80;99.90;;;;;;5096766;28;20192;-72
2023/05/03 03:37:37;;;;;;;1.02;0.40;;;23.80;99.90;;;;;;5096664;28;20640;-75
2023/05/03 03:40:08;;;;;;;3.28;0.40;;;23.90;99.90;;;;;;5096995;28;20196;-75
2023/05/03 03:42:42;;;;;;;4.80;0.70;;;23.80;99.90;;;;;;5096249;28;20203;-73
2023/05/03 03:45:16;;;;;;;1.27;0.35;;;23.80;99.90;;;;;;5096113;28;20227;-76
2023/05/03 03:47:47;;;;;;;1.23;0.50;;;23.80;99.90;;;;;;5096111;28;20561;-76
2023/05/03 03:50:18;;;;;;;1.42;0.47;;;23.90;99.90;;;;;;5096173;28;20211;-75
2023/05/03 03:52:49;;;;;;;2.15;0.40;;;23.90;99.90;;;;;;5096095;28;20188;-75
2023/05/03 03:55:20;;;;;;;2.10;0.50;;;23.90;99.90;;;;;;5096019;28;20189;-74
2023/05/03 03:57:53;;;;;;;2.80;0.45;;;23.90;99.90;;;;;;5095782;28;20203;-75
2023/05/03 04:00:27;;;;;;;1.58;0.40;;;23.90;99.90;;;;;;5096317;28;20195;-75
2023/05/03 04:02:58;;;;;;;3.75;0.35;;;23.90;99.90;;;;;;5095881;28;20274;-74
2023/05/03 04:05:29;;;;;;;2.45;0.43;;;23.90;99.90;;;;;;5096097;28;20227;-74
2023/05/03 04:08:00;;;;;;;2.92;0.45;;;23.90;99.90;;;;;;5089632;28;20200;-73
2023/05/03 04:10:31;;;;;;;2.28;0.30;;;24.00;99.90;;;;;;5081758;28;20304;-75
2023/05/03 04:13:04;;;;;;;2.30;0.40;;;23.80;99.90;;;;;;5092920;28;20205;-74
2023/05/03 04:15:35;;;;;;;1.88;0.30;;;23.80;99.90;;;;;;5081284;28;20216;-74
2023/05/03 04:18:07;;;;;;;4.85;0.60;;;23.70;99.90;;;;;;5089688;28;20203;-77
2023/05/03 04:20:39;;;;;;;0.85;0.40;;;23.80;99.90;;;;;;5097487;28;20270;-76
2023/05/03 04:23:10;;;;;;;1.10;0.38;;;23.80;99.90;;;;;;5095601;28;20188;-75
2023/05/03 04:25:47;;;;;;;2.05;0.47;;;23.80;99.90;;;;;;5097498;28;20196;-74
2023/05/03 04:28:20;;;;;;;5.88;0.75;;;23.80;99.90;;;;;;5094142;28;20189;-74
2023/05/03 04:30:51;;;;;;;2.50;0.40;;;23.80;99.90;;;;;;5078807;28;20214;-74
2023/05/03 04:33:28;;;;;;;2.17;0.45;;;23.90;99.90;;;;;;5092697;28;20197;-75
2023/05/03 04:36:00;;;;;;;0.70;0.28;;;23.90;99.90;;;;;;5090859;28;20196;-73
2023/05/03 04:38:34;;;;;;;1.40;0.60;;;23.90;99.90;;;;;;5094632;28;20196;-74
2023/05/03 04:41:05;;;;;;;2.53;0.30;;;23.90;99.90;;;;;;5092744;28;20198;-74
2023/05/03 04:43:38;;;;;;;1.50;0.32;;;23.90;99.90;;;;;;5075310;28;20208;-76
2023/05/03 04:46:09;;;;;;;4.05;0.30;;;23.90;99.90;;;;;;5083745;28;20193;-76
2023/05/03 04:48:40;;;;;;;0.55;0.30;;;23.80;99.90;;;;;;5094565;28;20207;-74
2023/05/03 04:51:12;;;;;;;0.88;0.20;;;23.90;99.90;;;;;;5093223;28;20208;-75
2023/05/03 04:53:43;;;;;;;1.92;0.38;;;23.80;99.90;;;;;;5091031;28;20200;-77
2023/05/03 04:56:14;;;;;;;0.63;0.30;;;23.80;99.90;;;;;;5094151;28;20200;-74
2023/05/03 04:58:47;;;;;;;1.90;0.40;;;23.90;99.90;;;;;;5080592;28;20283;-76
2023/05/03 05:01:18;;;;;;;0.60;0.47;;;23.90;99.90;;;;;;5092676;28;20192;-74
2023/05/03 05:03:49;;;;;;;1.80;0.40;;;23.90;99.90;;;;;;5094593;28;20269;-76
2023/05/03 05:06:20;;;;;;;2.00;0.40;;;23.80;99.90;;;;;;5094288;28;20207;-74
2023/05/03 05:08:52;;;;;;;2.17;0.30;;;23.80;99.90;;;;;;5089925;28;20341;-76
2023/05/03 05:11:23;;;;;;;0.98;0.30;;;23.80;99.90;;;;;;5082459;28;20199;-74
2023/05/03 05:13:56;;;;;;;0.70;0.30;;;23.80;99.90;;;;;;5092208;28;20220;-75
2023/05/03 05:16:27;;;;;;;1.10;0.30;;;23.70;99.90;;;;;;5073879;28;20189;-76
2023/05/03 05:18:58;;;;;;;1.15;0.28;;;23.70;99.90;;;;;;5090955;28;20191;-77
2023/05/03 05:21:29;;;;;;;2.05;0.47;;;23.60;99.90;;;;;;5078194;28;20570;-74
2023/05/03 05:24:00;;;;;;;0.68;0.30;;;23.60;99.90;;;;;;5074729;28;20704;-75
2023/05/03 05:26:31;;;;;;;0.63;0.20;;;23.50;99.90;;;;;;5083458;28;20192;-74
2023/05/03 05:29:05;;;;;;;1.95;0.32;;;23.50;99.90;;;;;;5091872;28;20188;-77
2023/05/03 05:31:36;;;;;;;1.00;0.30;;;23.40;99.90;;;;;;5098140;28;20187;-73
2023/05/03 05:34:12;;;;;;;3.25;0.60;;;23.40;99.90;;;;;;5085087;28;20189;-76
2023/05/03 05:36:43;;;;;;;1.98;0.30;;;23.40;99.90;;;;;;5073489;28;20660;-74
2023/05/03 05:39:14;;;;;;;0.55;0.30;;;23.40;99.90;;;;;;5073604;28;20193;-74
2023/05/03 05:41:45;;;;;;;0.98;0.15;;;23.30;99.90;;;;;;5080831;28;20201;-76
2023/05/03 05:44:19;;;;;;;1.10;0.40;;;23.30;99.90;;;;;;5073557;28;20232;-74
2023/05/03 05:46:50;;;;;;;1.92;0.40;;;23.20;99.90;;;;;;5074506;28;20545;-77
2023/05/03 05:49:21;;;;;;;1.33;0.30;;;23.10;99.90;;;;;;5093962;28;20185;-75
2023/05/03 05:51:52;;;;;;;0.85;0.25;;;23.00;99.90;;;;;;5092675;28;20206;-77
2023/05/03 05:54:23;;;;;;;2.13;0.30;;;23.00;99.90;;;;;;5093636;28;20192;-81
2023/05/03 05:56:54;;;;;;;2.15;0.52;;;22.90;99.90;;;;;;5092981;28;20203;-76
2023/05/03 05:59:28;;;;;;;0.68;0.40;;;22.90;99.90;;;;;;5093740;28;20184;-76
2023/05/03 06:01:59;;;;;;;1.65;0.30;;;22.80;99.90;;;;;;5084260;28;20189;-73
2023/05/03 06:04:30;;;;;;;0.40;0.30;;;22.80;99.90;;;;;;5100221;28;20224;-75
2023/05/03 06:07:02;;;;;;;0.65;0.40;;;22.70;99.90;;;;;;5087800;28;20189;-75
2023/05/03 06:10:06;;;;;;;0.73;0.40;;;22.70;99.90;;;;;;5074749;28;20211;-75
2023/05/03 06:12:37;;;;;;;1.33;0.45;;;22.60;99.90;;;;;;5084294;28;20200;-75
2023/05/03 06:15:11;;;;;;;3.03;0.40;;;22.60;99.90;;;;;;5086848;28;20208;-76
2023/05/03 06:17:43;;;;;;;1.00;0.30;;;22.60;99.90;;;;;;5093411;28;20188;-76
2023/05/03 06:20:15;;;;;;;0.68;0.32;;;22.50;99.90;;;;;;5093684;28;20196;-77
2023/05/03 06:22:46;;;;;;;1.90;0.30;;;22.50;99.90;;;;;;5079010;28;20354;-75
2023/05/03 06:25:17;;;;;;;1.10;0.20;;;22.40;99.90;;;;;;5089953;28;20211;-75
2023/05/03 06:27:48;;;;;;;1.95;0.57;;;22.40;99.90;;;;;;5093440;28;20266;-77
2023/05/03 06:30:22;;;;;;;0.98;0.47;;;22.30;99.90;;;;;;5095993;28;20191;-78
2023/05/03 06:32:53;;;;;;;2.83;0.60;;;22.30;99.90;;;;;;5093272;28;20196;-77
2023/05/03 06:35:24;;;;;;;2.38;0.93;;;22.30;99.90;;;;;;5093328;28;20191;-75
2023/05/03 06:37:55;;;;;;;2.00;0.60;;;22.20;99.90;;;;;;5092985;28;20636;-76
2023/05/03 06:40:26;;;;;;;0.68;0.35;;;22.20;99.90;;;;;;5097566;28;20192;-75
2023/05/03 06:42:57;;;;;;;1.55;0.63;;;22.10;99.90;;;;;;5097528;28;20195;-75
2023/05/03 06:45:30;;;;;;;1.52;0.63;;;22.10;99.90;;;;;;5094338;28;20223;-75
2023/05/03 06:48:01;;;;;;;5.05;0.70;;;22.00;99.90;;;;;;5082186;28;20205;-75
2023/05/03 06:50:32;;;;;;;1.08;0.52;;;22.00;99.90;;;;;;5077280;28;20193;-76
2023/05/03 06:53:04;;;;;;;1.33;0.40;;;21.90;99.90;;;;;;5104738;28;20194;-76
2023/05/03 06:55:35;;;;;;;1.50;0.40;;;21.80;99.90;;;;;;5077139;28;20196;-75
2023/05/03 06:58:08;;;;;;;1.83;0.40;;;21.70;99.90;;;;;;5076594;28;20610;-77
2023/05/03 07:00:42;;;;;;;1.33;0.52;;;21.70;99.90;;;;;;5095806;28;20275;-75
2023/05/03 07:03:13;;;;;;;1.52;0.40;;;21.60;99.90;;;;;;5079587;28;20232;-78
2023/05/03 07:05:47;;;;;;;0.98;0.50;;;21.50;99.90;;;;;;5076488;28;20236;-76
2023/05/03 07:08:19;;;;;;;0.80;0.40;;;21.50;99.90;;;;;;5087071;28;20191;-75
2023/05/03 07:10:50;;;;;;;1.80;0.60;;;21.40;99.90;;;;;;5105348;28;20198;-75
2023/05/03 07:13:21;;;;;;;1.15;0.50;;;21.40;99.90;;;;;;5100554;28;20196;-75
2023/05/03 07:15:54;;;;;;;0.57;0.30;;;21.30;99.90;;;;;;5089867;28;20228;-75
2023/05/03 07:18:26;;;;;;;1.40;0.60;;;21.30;99.90;;;;;;5085458;28;20203;-75
2023/05/03 07:20:57;;;;;;;1.52;0.40;;;21.30;99.90;;;;;;5096517;28;20204;-77
2023/05/03 07:23:28;;;;;;;1.48;0.50;;;21.20;99.90;;;;;;5104908;28;20215;-75
2023/05/03 07:25:59;;;;;;;2.00;0.50;;;21.20;99.90;;;;;;5097119;28;20220;-75
2023/05/03 07:28:30;;;;;;;1.55;0.40;;;21.10;99.90;;;;;;5094060;28;20559;-75
2023/05/03 07:31:07;;;;;;;2.13;0.57;;;21.10;99.90;;;;;;5091466;28;20203;-75
2023/05/03 07:33:38;;;;;;;2.75;0.52;;;21.00;99.90;;;;;;5077857;28;20201;-75
2023/05/03 07:36:12;;;;;;;2.65;0.50;;;21.00;99.90;;;;;;5096435;28;20206;-75
2023/05/03 07:38:46;;;;;;;1.63;0.57;;;21.00;99.90;;;;;;5095835;28;20270;-77
2023/05/03 07:41:17;;;;;;;0.77;0.45;;;21.00;99.90;;;;;;5078652;28;20203;-75
2023/05/03 07:43:49;;;;;;;1.50;0.65;;;21.00;99.90;;;;;;5080465;28;20192;-75
2023/05/03 07:46:22;;;;;;;1.42;0.60;;;20.90;99.90;;;;;;5100284;28;20220;-76
2023/05/03 07:48:53;;;;;;;1.75;0.50;;;21.00;99.90;;;;;;5094759;28;20242;-75
2023/05/03 07:51:24;;;;;;;2.88;0.45;;;21.00;99.90;;;;;;5092227;28;20271;-77
2023/05/03 07:53:58;;;;;;;3.35;0.80;;;20.90;99.90;;;;;;5095720;28;20279;-75
2023/05/03 07:56:31;;;;;;;1.25;0.50;;;20.90;99.90;;;;;;5075910;28;20699;-76
2023/05/03 07:59:02;;;;;;;0.68;0.20;;;21.00;99.90;;;;;;5084083;28;20275;-75
2023/05/03 08:01:35;;;;;;;0.90;0.50;;;21.00;99.90;;;;;;5086911;28;20206;-76
2023/05/03 08:04:06;;;;;;;1.73;0.40;;;21.00;99.90;;;;;;5085607;28;20591;-79
2023/05/03 08:06:41;;;;;;;2.42;0.60;;;21.00;99.90;;;;;;5085233;28;20215;-76
2023/05/03 08:09:13;;;;;;;1.40;0.60;;;20.90;99.90;;;;;;5088388;28;20192;-76
2023/05/03 08:11:45;;;;;;;2.33;0.60;;;20.90;99.90;;;;;;5083781;28;20278;-74
2023/05/03 08:14:17;;;;;;;3.75;0.70;;;20.90;99.90;;;;;;5088752;28;20207;-74
2023/05/03 08:16:51;;;;;;;1.42;0.70;;;20.90;99.90;;;;;;5086313;28;20283;-74
2023/05/03 08:19:22;;;;;;;2.10;0.57;;;20.90;99.90;;;;;;5088555;28;20219;-75
2023/05/03 08:21:55;;;;;;;3.17;0.80;;;20.90;99.90;;;;;;5085196;28;20282;-74
2023/05/03 08:24:27;;;;;;;2.55;0.50;;;20.80;99.90;;;;;;5090171;28;20274;-74
2023/05/03 08:27:00;;;;;;;2.38;0.60;;;20.80;99.90;;;;;;5087745;28;20632;-75
2023/05/03 08:29:31;;;;;;;3.42;0.77;;;20.80;99.90;;;;;;5090846;28;20207;-75
2023/05/03 08:32:04;;;;;;;1.60;0.70;;;20.70;99.90;;;;;;5088862;28;20199;-74
2023/05/03 08:34:36;;;;;;;1.67;0.70;;;20.70;99.90;;;;;;5088125;28;20310;-74
2023/05/03 08:37:08;;;;;;;1.98;0.90;;;20.70;99.90;;;;;;5096754;28;20192;-74
2023/05/03 08:39:41;;;;;;;1.70;0.80;;;20.70;99.90;;;;;;5093136;28;20656;-75
2023/05/03 08:42:12;;;;;;;1.27;0.70;;;20.70;99.90;;;;;;5089031;28;20235;-75
2023/05/03 08:44:49;;;;;;;3.03;0.80;;;20.60;99.90;;;;;;5091733;28;20236;-75
2023/05/03 08:47:22;;;;;;;1.17;0.60;;;20.60;99.90;;;;;;5089573;28;20583;-74
2023/05/03 08:49:55;;;;;;;2.10;0.70;;;20.60;99.90;;;;;;5106052;28;20200;-74
2023/05/03 08:52:28;;;;;;;2.97;0.60;;;20.60;99.90;;;;;;5099524;28;20296;-74
2023/05/03 08:55:00;;;;;;;1.67;0.63;;;20.50;99.90;;;;;;5074538;28;20205;-75
2023/05/03 08:57:32;;;;;;;1.90;0.60;;;20.40;99.90;;;;;;5093706;28;20195;-74
2023/05/03 09:00:09;;;;;;;2.10;0.80;;;20.40;99.90;;;;;;5084895;28;20227;-74
2023/05/03 09:02:43;;;;;;;4.40;1.20;;;20.30;99.90;;;;;;5093246;28;20608;-74
2023/05/03 09:05:45;;;;;;;2.70;0.70;;;20.30;99.90;;;;;;5092896;28;20228;-75
2023/05/03 09:08:16;;;;;;;1.75;0.70;;;20.20;99.90;;;;;;5012280;28;20274;-74
2023/05/03 09:10:47;;;;;;;2.97;0.65;;;20.20;99.90;;;;;;5078651;28;20204;-75
2023/05/03 09:13:18;;;;;;;1.70;0.70;;;20.10;99.90;;;;;;5091815;28;20192;-74
2023/05/03 09:15:56;;;;;;;2.17;0.68;;;20.10;99.90;;;;;;5091387;28;20204;-75
2023/05/03 09:18:32;;;;;;;2.25;0.75;;;20.00;99.90;;;;;;5086553;28;20660;-74
2023/05/03 09:21:03;;;;;;;1.27;0.60;;;19.90;99.90;;;;;;5088356;28;20204;-74
2023/05/03 09:23:34;;;;;;;2.03;0.60;;;19.80;99.90;;;;;;5085724;28;20192;-75
2023/05/03 09:26:06;;;;;;;2.85;0.77;;;19.80;99.90;;;;;;5092557;28;20232;-74
2023/05/03 09:28:44;;;;;;;0.98;0.50;;;19.70;99.90;;;;;;5093123;28;20192;-74
2023/05/03 09:31:15;;;;;;;1.35;0.40;;;19.60;99.90;;;;;;5082679;28;20663;-74
2023/05/03 09:33:48;;;;;;;0.63;0.43;;;19.50;99.90;;;;;;5082552;28;20671;-74
2023/05/03 09:36:20;;;;;;;1.27;0.47;;;19.40;99.90;;;;;;5080131;28;20203;-74
2023/05/03 09:38:52;;;;;;;2.72;0.60;;;19.30;99.90;;;;;;5093209;28;20206;-75
2023/05/03 09:41:33;;;;;;;2.10;0.50;;;19.20;99.90;;;;;;5096121;28;20283;-74
2023/05/03 09:44:04;;;;;;;2.00;0.80;;;19.20;99.90;;;;;;5087352;28;20203;-74
2023/05/03 09:46:38;;;;;;;3.08;0.75;;;19.10;99.90;;;;;;5085202;28;20287;-75
2023/05/03 09:49:11;;;;;;;2.58;0.60;;;19.00;99.90;;;;;;5081074;28;20196;-74
2023/05/03 09:51:43;;;;;;;1.90;0.52;;;18.90;99.90;;;;;;5091927;28;20196;-75
2023/05/03 09:54:16;;;;;;;1.83;0.60;;;18.90;99.90;;;;;;5089011;28;20671;-74
2023/05/03 09:56:48;;;;;;;1.80;0.60;;;18.80;99.90;;;;;;5092547;28;20211;-74
2023/05/03 09:59:19;;;;;;;1.63;0.70;;;18.70;99.90;;;;;;5090782;28;20204;-74
2023/05/03 10:01:56;;;;;;;1.65;0.60;;;18.70;99.90;;;;;;5092131;28;20665;-74
2023/05/03 10:04:30;;;;;;;1.58;0.65;;;18.70;99.90;;;;;;5081888;28;20236;-75
2023/05/03 10:07:05;;;;;;;3.70;0.70;;;18.60;99.90;;;;;;5092552;28;20215;-74
2023/05/03 10:09:41;;;;;;;4.18;0.80;;;18.60;99.90;;;;;;5092839;28;20561;-74
2023/05/03 10:12:16;;;;;;;5.95;0.70;;;18.60;99.90;;;;;;5085089;28;20219;-73
2023/05/03 10:14:51;;;;;;;2.67;0.70;;;18.50;99.90;;;;;;5085991;28;20194;-73
2023/05/03 10:17:26;;;;;;;2.30;0.70;;;18.50;99.90;;;;;;5092102;28;20195;-74
2023/05/03 10:20:03;;;;;;;4.13;0.77;;;18.50;99.90;;;;;;5079934;28;20191;-73
2023/05/03 10:22:34;;;;;;;1.35;0.60;;;18.40;99.90;;;;;;5092041;28;20207;-74
2023/05/03 10:25:12;;;;;;;2.15;0.70;;;18.40;99.90;;;;;;5091560;28;20196;-74
2023/05/03 10:27:54;;;;;;;2.55;0.85;;;18.30;99.90;;;;;;5093250;28;20271;-74
2023/05/03 10:30:34;;;;;;;3.65;0.85;;;18.30;99.90;;;;;;5087725;28;20302;-75
2023/05/03 10:33:33;;;;;;;2.15;0.70;;;18.20;99.90;;;;;;5078326;28;20221;-74
2023/05/03 10:36:14;;;;;;;2.97;0.77;;;18.20;99.90;;;;;;5095902;28;20200;-75
2023/05/03 10:38:46;;;;;;;3.45;0.80;;;18.10;99.90;;;;;;5092192;28;20196;-74
2023/05/03 10:41:26;;;;;;;5.13;0.90;;;18.10;99.90;;;;;;5091524;28;20202;-75
2023/05/03 10:43:57;;;;;;;1.83;0.60;;;18.00;99.90;;;;;;5086844;28;20227;-75
2023/05/03 10:46:38;;;;;;;2.30;0.90;;;18.00;99.90;;;;;;5091313;28;20216;-75
2023/05/03 10:49:26;;;;;;;4.30;0.90;;;17.90;99.90;;;;;;5097873;28;20219;-74
2023/05/03 10:52:02;;;;;;;2.60;0.80;;;17.90;99.90;;;;;;5081877;28;20257;-74
2023/05/03 10:54:33;;;;;;;4.15;1.08;;;17.80;99.90;;;;;;5085348;28;20206;-75
2023/05/03 10:57:04;;;;;;;6.18;1.20;;;17.80;99.90;;;;;;5091151;28;20570;-73
2023/05/03 10:59:51;;;;;;;4.35;1.17;;;17.70;99.90;;;;;;5090979;28;20192;-74
2023/05/03 11:02:29;;;;;;;3.53;1.00;;;17.70;99.90;;;;;;5080740;28;20279;-75
2023/05/03 11:05:05;;;;;;;4.10;1.15;;;17.60;99.90;;;;;;5091417;28;20222;-74
2023/05/03 11:07:38;;;;;;;4.95;1.17;;;17.60;99.90;;;;;;5092867;28;20253;-74
2023/05/03 11:10:20;;;;;;;3.72;1.38;;;17.60;99.90;;;;;;5100853;28;20199;-75
2023/05/03 11:12:55;;;;;;;3.58;1.20;;;17.50;99.90;;;;;;5080252;28;20203;-74
2023/05/03 11:15:26;;;;;;;7.43;1.33;;;17.50;99.90;;;;;;5091740;28;20187;-75
2023/05/03 11:17:57;;;;;;;5.55;1.38;;;17.50;99.90;;;;;;5084743;28;20556;-76
2023/05/03 11:20:28;;;;;;;5.55;1.25;;;17.50;99.90;;;;;;5092915;28;20275;-74
2023/05/03 11:23:02;;;;;;;6.68;1.48;;;17.50;99.90;;;;;;5093181;28;20192;-74
2023/05/03 11:25:34;;;;;;;6.15;1.25;;;17.50;99.90;;;;;;5102868;28;20196;-74
2023/05/03 11:28:05;;;;;;;8.85;1.30;;;17.50;99.90;;;;;;5089373;28;20205;-74
2023/05/03 11:30:38;;;;;;;5.07;1.20;;;17.50;99.90;;;;;;5086154;28;20203;-75
2023/05/03 11:33:09;;;;;;;6.68;1.33;;;17.40;99.90;;;;;;5088678;28;20246;-74
2023/05/03 11:35:41;;;;;;;5.40;1.30;;;17.40;99.90;;;;;;5080909;28;20197;-74
2023/05/03 11:38:15;;;;;;;4.15;1.27;;;17.40;99.90;;;;;;5099597;28;20196;-75
2023/05/03 11:40:46;;;;;;;4.32;1.20;;;17.30;99.90;;;;;;5096347;28;20275;-74
2023/05/03 11:43:18;;;;;;;5.95;1.20;;;17.30;99.90;;;;;;5096057;28;20189;-74
2023/05/03 11:45:50;;;;;;;9.68;1.60;;;17.30;99.90;;;;;;5096350;28;20195;-75
2023/05/03 11:48:21;;;;;;;5.20;1.20;;;17.20;99.90;;;;;;5097018;28;20196;-75
2023/05/03 11:50:54;;;;;;;7.28;1.58;;;17.20;99.90;;;;;;5108429;28;20219;-74
2023/05/03 11:53:28;;;;;;;5.05;1.50;;;17.20;99.90;;;;;;5076348;28;20185;-75
2023/05/03 11:56:02;;;;;;;7.03;1.98;;;17.20;99.90;;;;;;5105198;28;20196;-75
2023/05/03 11:58:33;;;;;;;5.95;1.52;;;17.20;99.90;;;;;;5116595;27;20191;-74
2023/05/03 12:01:07;;;;;;;5.45;1.48;;;17.10;99.90;;;;;;5116544;28;20214;-75
2023/05/03 12:03:39;;;;;;;8.15;1.60;;;17.10;99.90;;;;;;5116403;28;20698;-73
2023/05/03 12:06:10;;;;;;;6.13;1.63;;;17.10;99.90;;;;;;5116328;28;20670;-74
2023/05/03 12:08:46;;;;;;;7.50;1.70;;;17.10;99.90;;;;;;5087936;28;20201;-75
2023/05/03 12:11:20;;;;;;;8.00;1.73;;;17.10;99.90;;;;;;5076153;28;20199;-74
2023/05/03 12:14:03;;;;;;;7.15;1.70;;;17.10;99.90;;;;;;5090807;28;20191;-75
2023/05/03 12:16:50;;;;;;;6.28;1.65;;;17.10;99.90;;;;;;5075482;28;20684;-74
2023/05/03 12:19:31;;;;;;;8.43;1.70;;;17.10;99.90;;;;;;5075596;28;20238;-75
2023/05/03 12:22:02;;;;;;;6.43;1.80;;;17.10;99.90;;;;;;5075859;28;20197;-75
2023/05/03 12:24:35;;;;;;;6.60;1.60;;;17.10;99.90;;;;;;5089355;28;20203;-75
2023/05/03 12:27:06;;;;;;;6.05;1.92;;;17.10;99.90;;;;;;5100519;28;20220;-74
2023/05/03 12:29:37;;;;;;;8.38;1.67;;;17.10;99.90;;;;;;5078532;28;20674;-74
2023/05/03 12:32:09;;;;;;;5.70;1.60;;;17.00;99.90;;;;;;5080570;28;20216;-75
2023/05/03 12:34:41;;;;;;;7.82;1.98;;;17.00;99.90;;;;;;5101080;28;20196;-75
2023/05/03 12:37:12;;;;;;;6.25;1.55;;;17.00;99.90;;;;;;5074763;28;20208;-74
2023/05/03 12:39:45;;;;;;;7.07;1.75;;;16.90;99.90;;;;;;5092864;28;20206;-74
2023/05/03 12:42:16;;;;;;;6.75;1.65;;;16.90;99.90;;;;;;5095032;28;20763;-74
2023/05/03 12:44:48;;;;;;;7.07;1.50;;;16.90;99.90;;;;;;5096952;28;20287;-75
2023/05/03 12:47:19;;;;;;;7.07;1.70;;;16.80;99.90;;;;;;5110783;28;20212;-75
2023/05/03 12:49:50;;;;;;;5.97;1.80;;;16.80;99.90;;;;;;5095749;28;20196;-75
2023/05/03 12:52:22;;;;;;;5.28;1.52;;;16.80;99.90;;;;;;5095134;28;20196;-75
2023/05/03 12:54:58;;;;;;;8.57;1.90;;;16.80;99.90;;;;;;5094830;28;20199;-76
2023/05/03 12:57:29;;;;;;;7.90;2.00;;;16.80;99.90;;;;;;5095637;28;20228;-75
2023/05/03 13:00:00;;;;;;;7.30;1.60;;;16.70;99.90;;;;;;5081654;28;20200;-75
2023/05/03 13:02:31;;;;;;;8.45;1.60;;;16.70;99.90;;;;;;5074552;28;20189;-73
2023/05/03 13:05:05;;;;;;;6.60;1.70;;;16.70;99.90;;;;;;5083109;28;20283;-76
2023/05/03 13:07:37;;;;;;;5.25;1.50;;;16.70;99.90;;;;;;5087980;28;20211;-75
2023/05/03 13:10:10;;;;;;;5.00;1.67;;;16.60;99.90;;;;;;5078222;28;20230;-77
2023/05/03 13:12:42;;;;;;;5.00;1.17;;;16.60;99.90;;;;;;5099962;28;20567;-74
2023/05/03 13:15:13;;;;;;;8.73;1.60;;;16.60;99.90;;;;;;5085260;28;20199;-75
2023/05/03 13:17:48;;;;;;;7.22;1.50;;;16.60;99.90;;;;;;5088658;28;20255;-73